createdAt,value
2018-06-18T00:04:36.519Z,6.23
2018-06-18T00:09:39.511Z,7.13
2018-06-18T00:14:42.753Z,7.53
2018-06-18T00:19:45.904Z,7.70
2018-06-18T00:24:49.279Z,10.70
2018-06-18T00:29:52.391Z,6.90
2018-06-18T00:34:55.288Z,14.27
2018-06-18T00:39:58.302Z,7.10
2018-06-18T00:45:01.509Z,7.30
2018-06-18T00:50:04.491Z,9.27
2018-06-18T00:55:08.167Z,6.10
2018-06-18T01:00:11.690Z,7.90
2018-06-18T01:05:15.053Z,8.30
2018-06-18T01:10:17.991Z,10.73
2018-06-18T01:15:21.154Z,8.70
2018-06-18T01:20:24.178Z,7.30
2018-06-18T01:25:29.194Z,9.90
2018-06-18T01:30:33.961Z,8.60
2018-06-18T01:35:38.057Z,8.67
2018-06-18T01:40:41.504Z,8.87
2018-06-18T01:45:45.111Z,8.30
2018-06-18T01:50:48.371Z,12.70
2018-06-18T01:55:51.451Z,9.20
2018-06-18T02:00:55.347Z,9.20
2018-06-18T02:05:58.310Z,12.23
2018-06-18T02:11:01.554Z,9.70
2018-06-18T02:16:04.724Z,8.47
2018-06-18T02:21:07.668Z,12.10
2018-06-18T02:26:10.803Z,11.60
2018-06-18T02:31:19.561Z,10.50
2018-06-18T02:36:28.410Z,9.13
2018-06-18T02:41:31.942Z,12.33
2018-06-18T02:46:39.689Z,9.57
2018-06-18T02:51:43.706Z,9.47
2018-06-18T02:56:52.801Z,7.30
2018-06-18T03:01:56.642Z,8.87
2018-06-18T03:06:59.662Z,9.13
2018-06-18T03:12:02.630Z,9.70
2018-06-18T03:17:05.724Z,11.40
2018-06-18T03:22:14.156Z,10.90
2018-06-18T03:27:22.490Z,10.80
2018-06-18T03:32:25.545Z,11.30
2018-06-18T03:37:28.974Z,9.80
2018-06-18T03:42:31.958Z,10.60
2018-06-18T03:47:35.362Z,8.00
2018-06-18T03:52:38.237Z,8.70
2018-06-18T03:57:41.494Z,7.50
2018-06-18T04:02:54.039Z,9.80
2018-06-18T04:08:04.336Z,15.97
2018-06-18T04:13:08.406Z,11.77
2018-06-18T04:18:11.615Z,9.47
2018-06-18T04:23:14.764Z,14.07
2018-06-18T04:28:17.728Z,17.00
2018-06-18T04:33:23.954Z,9.30
2018-06-18T04:38:27.929Z,8.67
2018-06-18T04:43:37.749Z,8.73
2018-06-18T04:48:46.777Z,12.50
2018-06-18T04:53:49.909Z,10.83
2018-06-18T04:58:56.051Z,10.20
2018-06-18T05:03:59.559Z,12.33
2018-06-18T05:09:10.379Z,15.90
2018-06-18T05:14:13.221Z,11.60
2018-06-18T05:19:16.115Z,16.27
2018-06-18T05:24:19.296Z,9.27
2018-06-18T05:29:23.813Z,11.13
2018-06-18T05:34:29.052Z,10.57
2018-06-18T05:39:32.041Z,16.83
2018-06-18T05:44:35.005Z,17.17
2018-06-18T05:49:38.139Z,14.40
2018-06-18T05:54:41.309Z,12.03
2018-06-18T05:59:44.574Z,10.67
2018-06-18T06:04:47.704Z,13.40
2018-06-18T06:09:50.652Z,14.57
2018-06-18T06:14:54.530Z,9.57
2018-06-18T06:19:57.476Z,8.17
2018-06-18T06:25:00.397Z,6.57
2018-06-18T06:30:04.745Z,6.57
2018-06-18T06:35:19.659Z,10.13
2018-06-18T06:40:23.348Z,8.10
2018-06-18T06:45:27.323Z,9.00
2018-06-18T06:50:30.328Z,7.97
2018-06-18T06:55:33.270Z,7.03
2018-06-18T07:00:36.233Z,10.70
2018-06-18T07:05:39.939Z,10.40
2018-06-18T07:10:42.802Z,9.27
2018-06-18T07:15:45.744Z,10.50
2018-06-18T07:20:48.673Z,6.47
2018-06-18T07:25:51.528Z,9.73
2018-06-18T07:30:57.035Z,10.23
2018-06-18T07:36:00.167Z,7.63
2018-06-18T07:41:03.073Z,9.70
2018-06-18T07:46:06.241Z,7.47
2018-06-18T07:51:09.173Z,8.00
2018-06-18T07:56:12.062Z,7.60
2018-06-18T08:01:14.944Z,8.43
2018-06-18T08:06:18.150Z,6.70
2018-06-18T08:11:21.155Z,6.87
2018-06-18T08:16:24.348Z,8.97
2018-06-18T08:21:27.221Z,8.33
2018-06-18T08:26:30.114Z,8.03
2018-06-18T08:31:33.219Z,7.83
2018-06-18T08:36:36.259Z,7.00
2018-06-18T08:41:39.599Z,5.17
2018-06-18T08:47:00.574Z,6.57
2018-06-18T08:52:10.119Z,6.30
2018-06-18T09:43:33.484Z,11.70
2018-06-18T09:48:41.934Z,11.67
2018-06-18T09:53:50.401Z,9.73
2018-06-18T09:58:59.007Z,12.37
2018-06-18T10:04:03.352Z,9.30
2018-06-18T10:09:08.576Z,9.97
2018-06-18T10:14:11.608Z,7.17
2018-06-18T10:19:14.492Z,9.13
2018-06-18T10:24:17.642Z,8.23
2018-06-18T10:29:20.536Z,11.20
2018-06-18T10:34:29.309Z,13.33
2018-06-18T10:39:37.560Z,12.20
2018-06-18T10:44:41.091Z,9.57
2018-06-18T10:49:45.093Z,11.13
2018-06-18T10:54:48.056Z,9.17
2018-06-18T10:59:50.956Z,9.67
2018-06-18T11:04:59.541Z,9.30
2018-06-18T11:10:02.764Z,7.97
2018-06-18T11:15:05.749Z,6.00
2018-06-18T11:20:14.496Z,10.73
2018-06-18T11:25:22.929Z,9.07
2018-06-18T11:30:25.835Z,12.40
2018-06-18T11:35:28.997Z,14.40
2018-06-18T11:40:32.160Z,16.37
2018-06-18T11:45:35.292Z,13.73
2018-06-18T11:50:38.303Z,11.60
2018-06-18T11:55:41.576Z,16.03
2018-06-18T12:00:50.032Z,16.43
2018-06-18T12:05:58.418Z,15.00
2018-06-18T12:11:01.664Z,8.40
2018-06-18T12:16:05.794Z,8.30
2018-06-18T12:21:08.687Z,9.00
2018-06-18T12:26:11.540Z,10.23
2018-06-18T12:31:14.443Z,13.87
2018-06-18T12:36:19.173Z,17.10
2018-06-18T12:41:22.591Z,11.27
2018-06-18T12:46:31.769Z,12.93
2018-06-18T12:51:40.252Z,15.43
2018-06-18T12:56:48.716Z,24.07
2018-06-18T13:01:56.432Z,15.03
2018-06-18T13:06:59.327Z,9.87
2018-06-18T13:12:02.265Z,14.80
2018-06-18T13:17:05.884Z,28.03
2018-06-18T13:22:14.313Z,31.67
2018-06-18T13:27:28.431Z,37.10
2018-06-18T13:32:37.440Z,37.23
2018-06-18T13:37:46.193Z,34.03
2018-06-18T13:42:54.667Z,33.70
2018-06-18T13:48:03.357Z,24.90
2018-06-18T13:53:06.680Z,25.90
2018-06-18T13:58:09.534Z,22.87
2018-06-18T14:03:12.569Z,15.10
2018-06-18T14:08:15.485Z,15.77
2018-06-18T14:13:18.372Z,20.50
2018-06-18T14:18:21.420Z,23.80
2018-06-18T14:23:24.741Z,32.30
2018-06-18T14:28:27.650Z,30.60
2018-06-18T14:33:37.172Z,31.47
2018-06-18T14:38:45.782Z,29.30
2018-06-18T14:43:48.632Z,25.50
2018-06-18T14:48:52.179Z,25.83
2018-06-18T14:53:55.012Z,25.67
2018-06-18T14:59:03.344Z,23.97
2018-06-18T15:04:06.322Z,19.90
2018-06-18T15:09:10.834Z,20.00
2018-06-18T15:14:13.642Z,19.63
2018-06-18T15:19:16.939Z,18.33
2018-06-18T15:24:24.341Z,16.13
2018-06-18T15:29:27.912Z,15.83
2018-06-18T15:34:36.542Z,14.90
2018-06-18T15:39:40.348Z,16.40
2018-06-18T15:44:43.244Z,17.43
2018-06-18T15:49:46.547Z,14.77
2018-06-18T15:54:49.545Z,15.30
2018-06-18T15:59:52.959Z,14.70
2018-06-18T16:04:55.880Z,19.47
2018-06-18T16:09:58.765Z,19.43
2018-06-18T16:15:01.655Z,22.20
2018-06-18T16:20:08.308Z,24.00
2018-06-18T16:25:11.305Z,26.60
2018-06-18T16:30:14.205Z,27.20
2018-06-18T16:35:17.404Z,22.67
2018-06-18T16:40:21.959Z,20.37
2018-06-18T16:45:25.154Z,16.97
2018-06-18T16:50:29.638Z,17.53
2018-06-18T16:55:32.655Z,18.00
2018-06-18T17:00:35.886Z,14.60
2018-06-18T17:05:39.168Z,14.00
2018-06-18T17:10:43.026Z,13.30
2018-06-18T17:15:47.012Z,14.27
2018-06-18T17:20:50.580Z,12.73
2018-06-18T17:25:53.618Z,13.00
2018-06-18T17:30:56.870Z,13.40
2018-06-18T17:36:00.415Z,14.43
2018-06-18T17:41:04.243Z,13.57
2018-06-18T17:46:07.265Z,14.00
2018-06-18T17:51:11.617Z,13.53
2018-06-18T17:56:15.005Z,14.30
2018-06-18T18:01:18.012Z,15.53
2018-06-18T18:06:21.462Z,15.73
2018-06-18T18:11:24.652Z,14.70
2018-06-18T18:16:27.944Z,14.70
2018-06-18T18:21:31.494Z,15.13
2018-06-18T18:26:34.878Z,12.60
2018-06-18T18:31:38.508Z,14.57
2018-06-18T18:36:41.505Z,14.67
2018-06-18T18:41:47.379Z,12.97
2018-06-18T18:46:50.806Z,18.00
2018-06-18T18:51:55.312Z,11.90
2018-06-18T18:58:14.192Z,15.40
2018-06-18T19:03:19.165Z,12.70
2018-06-18T19:08:28.922Z,12.43
2018-06-18T19:13:34.527Z,13.27
2018-06-18T19:18:39.659Z,14.63
2018-06-18T19:23:44.581Z,13.53
2018-06-18T19:28:49.260Z,12.50
2018-06-18T19:34:29.280Z,11.10
2018-06-18T19:39:36.764Z,12.70
2018-06-18T19:44:40.397Z,10.17
2018-06-18T19:49:43.899Z,11.20
2018-06-18T19:54:53.250Z,12.00
2018-06-18T19:59:56.724Z,9.50
2018-06-18T20:05:04.504Z,12.13
2018-06-18T20:10:08.297Z,11.50
2018-06-18T20:15:12.931Z,14.07
2018-06-18T20:20:16.408Z,14.50
2018-06-18T20:25:25.908Z,14.53
2018-06-18T20:30:28.990Z,15.97
2018-06-18T20:35:35.476Z,16.17
2018-06-18T20:40:38.934Z,17.77
2018-06-18T20:45:42.020Z,20.37
2018-06-18T20:50:45.165Z,21.10
2018-06-18T20:55:48.360Z,20.30
2018-06-18T21:00:51.306Z,22.47
2018-06-18T21:05:54.313Z,15.10
2018-06-18T21:10:57.259Z,25.10
2018-06-18T21:16:00.482Z,30.63
2018-06-18T21:21:03.372Z,29.23
2018-06-18T21:26:06.371Z,26.07
2018-06-18T21:31:09.497Z,29.17
2018-06-18T21:36:12.468Z,27.00
2018-06-18T21:41:15.377Z,26.53
2018-06-18T21:46:18.546Z,26.60
2018-06-18T21:51:21.611Z,26.73
2018-06-18T21:56:25.084Z,26.23
2018-06-18T22:01:37.271Z,26.63
2018-06-18T22:06:40.360Z,26.73
2018-06-18T22:11:45.146Z,26.00
2018-06-18T22:16:48.480Z,25.77
2018-06-18T22:21:51.724Z,26.87
2018-06-18T22:26:54.794Z,30.50
2018-06-18T22:31:57.943Z,26.93
2018-06-18T22:37:00.865Z,24.40
2018-06-18T22:42:03.865Z,24.00
2018-06-18T22:47:07.808Z,28.07
2018-06-18T22:52:10.675Z,26.80
2018-06-18T22:57:14.809Z,27.40
2018-06-18T23:02:22.174Z,24.67
2018-06-18T23:07:25.360Z,24.03
2018-06-18T23:12:33.451Z,20.87
2018-06-18T23:17:36.544Z,21.33
2018-06-18T23:22:40.122Z,22.90
2018-06-18T23:32:53.906Z,21.40
2018-06-18T23:37:57.806Z,19.47
2018-06-18T23:43:02.495Z,20.40
2018-06-18T23:48:05.980Z,19.47
2018-06-18T23:53:09.588Z,20.87
2018-06-18T23:58:12.723Z,21.57
